createdAt,value
2023-03-06T00:01:31.949Z,1.95
2023-03-06T00:04:03.852Z,2.55
2023-03-06T00:06:35.589Z,2.15
2023-03-06T00:09:09.749Z,2.90
2023-03-06T00:11:41.341Z,2.20
2023-03-06T00:14:12.888Z,2.72
2023-03-06T00:16:47.440Z,2.70
2023-03-06T00:19:18.996Z,2.97
2023-03-06T00:21:50.805Z,3.33
2023-03-06T00:24:22.421Z,2.92
2023-03-06T00:26:56.966Z,3.38
2023-03-06T00:29:30.618Z,3.33
2023-03-06T00:32:05.751Z,3.55
2023-03-06T00:34:37.604Z,2.75
2023-03-06T00:37:09.299Z,3.88
2023-03-06T00:39:40.866Z,3.38
2023-03-06T00:42:13.249Z,3.10
2023-03-06T00:44:47.895Z,2.78
2023-03-06T00:47:19.513Z,2.63
2023-03-06T00:49:51.147Z,3.22
2023-03-06T00:52:22.710Z,3.65
2023-03-06T00:54:54.365Z,3.45
2023-03-06T00:57:25.953Z,2.45
2023-03-06T00:59:57.521Z,3.58
2023-03-06T01:02:29.247Z,3.03
2023-03-06T01:05:02.953Z,3.17
2023-03-06T01:07:36.590Z,3.42
2023-03-06T01:10:10.313Z,3.60
2023-03-06T01:12:41.894Z,3.78
2023-03-06T01:15:13.955Z,2.95
2023-03-06T01:17:45.700Z,2.35
2023-03-06T01:20:18.348Z,3.42
2023-03-06T01:22:50.044Z,3.38
2023-03-06T01:25:21.590Z,3.28
2023-03-06T01:27:53.329Z,2.67
2023-03-06T01:30:24.899Z,2.95
2023-03-06T01:32:56.486Z,2.88
2023-03-06T01:35:28.046Z,4.03
2023-03-06T01:37:59.712Z,3.20
2023-03-06T01:40:33.983Z,2.28
2023-03-06T01:43:28.926Z,2.75
2023-03-06T01:46:42.312Z,3.38
2023-03-06T01:49:24.357Z,2.42
2023-03-06T01:52:00.716Z,2.50
2023-03-06T01:54:46.532Z,2.85
2023-03-06T01:57:23.942Z,3.75
2023-03-06T02:00:13.898Z,2.80
2023-03-06T02:03:11.250Z,3.15
2023-03-06T02:05:44.020Z,3.15
2023-03-06T02:08:19.479Z,2.72
2023-03-06T02:11:21.178Z,3.17
2023-03-06T02:13:54.780Z,3.28
2023-03-06T02:16:31.354Z,3.28
2023-03-06T02:19:07.222Z,3.47
2023-03-06T02:21:44.482Z,3.15
2023-03-06T02:24:30.159Z,2.92
2023-03-06T02:27:05.507Z,2.65
2023-03-06T02:29:37.062Z,2.90
2023-03-06T02:32:09.044Z,4.47
2023-03-06T02:34:40.533Z,2.97
2023-03-06T02:37:12.117Z,3.28
2023-03-06T02:39:50.045Z,3.85
2023-03-06T02:42:26.335Z,3.58
2023-03-06T02:45:01.806Z,3.17
2023-03-06T02:47:33.335Z,3.15
2023-03-06T02:50:05.234Z,3.38
2023-03-06T02:52:36.830Z,3.13
2023-03-06T02:55:09.226Z,3.28
2023-03-06T02:57:40.889Z,3.58
2023-03-06T03:00:14.168Z,3.17
2023-03-06T03:02:48.677Z,3.10
2023-03-06T03:05:20.254Z,3.38
2023-03-06T03:07:52.033Z,4.05
2023-03-06T03:10:24.003Z,3.30
2023-03-06T03:12:56.037Z,2.90
2023-03-06T03:15:27.988Z,3.05
2023-03-06T03:17:59.516Z,3.40
2023-03-06T03:20:31.122Z,2.53
2023-03-06T03:23:02.899Z,3.72
2023-03-06T03:25:34.392Z,4.20
2023-03-06T03:28:06.003Z,3.92
2023-03-06T03:30:40.451Z,3.15
2023-03-06T03:33:12.844Z,3.17
2023-03-06T03:35:44.426Z,4.15
2023-03-06T03:38:16.050Z,3.67
2023-03-06T03:40:50.624Z,3.05
2023-03-06T03:43:22.490Z,3.65
2023-03-06T03:45:54.187Z,2.75
2023-03-06T03:48:25.877Z,3.80
2023-03-06T03:51:08.897Z,2.75
2023-03-06T03:53:40.684Z,3.50
2023-03-06T03:56:13.248Z,1.77
2023-03-06T03:58:44.811Z,3.10
2023-03-06T04:01:16.417Z,3.55
2023-03-06T04:03:48.307Z,3.47
2023-03-06T04:06:21.963Z,3.90
2023-03-06T04:08:53.875Z,3.17
2023-03-06T04:11:25.547Z,2.72
2023-03-06T04:13:57.225Z,3.58
2023-03-06T04:16:28.799Z,3.47
2023-03-06T04:19:00.815Z,3.47
2023-03-06T04:21:34.657Z,4.05
2023-03-06T04:24:07.066Z,3.95
2023-03-06T04:26:41.485Z,4.00
2023-03-06T04:29:13.121Z,4.53
2023-03-06T04:31:44.761Z,2.55
2023-03-06T04:34:16.415Z,3.15
2023-03-06T04:36:47.932Z,2.63
2023-03-06T04:39:19.453Z,3.33
2023-03-06T04:41:51.048Z,3.67
2023-03-06T04:44:22.749Z,3.38
2023-03-06T04:46:54.282Z,3.50
2023-03-06T04:49:26.089Z,2.45
2023-03-06T04:51:57.924Z,4.70
2023-03-06T04:54:29.819Z,3.00
2023-03-06T04:57:01.391Z,3.97
2023-03-06T04:59:32.969Z,3.13
2023-03-06T05:02:04.760Z,3.85
2023-03-06T05:04:36.315Z,3.45
2023-03-06T05:07:08.366Z,3.67
2023-03-06T05:09:39.952Z,3.97
2023-03-06T05:12:11.575Z,5.28
2023-03-06T05:14:43.787Z,3.55
2023-03-06T05:17:15.367Z,3.20
2023-03-06T05:19:46.923Z,4.47
2023-03-06T05:22:18.548Z,4.40
2023-03-06T05:24:50.253Z,4.32
2023-03-06T05:27:22.066Z,5.00
2023-03-06T05:29:54.537Z,3.85
2023-03-06T05:32:26.602Z,3.72
2023-03-06T05:34:58.184Z,3.28
2023-03-06T05:37:29.890Z,3.63
2023-03-06T05:40:06.624Z,3.15
2023-03-06T05:42:38.124Z,6.22
2023-03-06T05:45:10.777Z,5.82
2023-03-06T05:47:42.319Z,4.82
2023-03-06T05:50:14.806Z,5.10
2023-03-06T05:52:46.371Z,3.90
2023-03-06T05:55:19.558Z,4.57
2023-03-06T05:57:51.703Z,4.65
2023-03-06T06:00:24.119Z,3.95
2023-03-06T06:03:01.732Z,4.38
2023-03-06T06:05:33.278Z,4.95
2023-03-06T06:08:04.958Z,5.90
2023-03-06T06:10:36.576Z,4.03
2023-03-06T06:13:10.649Z,3.72
2023-03-06T06:15:42.279Z,4.53
2023-03-06T06:18:13.987Z,3.88
2023-03-06T06:20:45.716Z,4.32
2023-03-06T06:23:17.291Z,4.70
2023-03-06T06:25:48.910Z,4.78
2023-03-06T06:28:20.398Z,4.72
2023-03-06T06:30:51.997Z,4.28
2023-03-06T06:33:24.365Z,4.70
2023-03-06T06:35:55.965Z,5.45
2023-03-06T06:38:27.536Z,5.47
2023-03-06T06:41:31.221Z,4.50
2023-03-06T06:43:50.536Z,4.80
2023-03-06T06:46:59.262Z,4.43
2023-03-06T06:49:14.864Z,5.30
2023-03-06T06:51:46.460Z,4.57
2023-03-06T06:54:19.838Z,3.88
2023-03-06T06:56:52.030Z,3.97
2023-03-06T06:59:25.883Z,5.28
2023-03-06T07:01:57.711Z,4.82
2023-03-06T07:04:29.349Z,6.05
2023-03-06T07:07:01.418Z,4.88
2023-03-06T07:09:32.976Z,5.55
2023-03-06T07:12:04.879Z,4.78
2023-03-06T07:14:36.455Z,5.05
2023-03-06T07:17:09.649Z,4.43
2023-03-06T07:19:41.556Z,4.55
2023-03-06T07:22:13.105Z,5.20
2023-03-06T07:24:44.937Z,4.53
2023-03-06T07:27:16.494Z,4.45
2023-03-06T07:29:48.729Z,5.40
2023-03-06T07:32:23.961Z,4.68
2023-03-06T07:35:09.683Z,6.43
2023-03-06T07:37:47.088Z,6.20
2023-03-06T07:40:20.692Z,7.00
2023-03-06T07:43:09.246Z,7.28
2023-03-06T07:45:46.940Z,6.30
2023-03-06T07:48:18.545Z,6.15
2023-03-06T07:51:03.088Z,5.38
2023-03-06T07:53:35.459Z,4.45
2023-03-06T07:56:11.295Z,4.72
2023-03-06T07:58:46.979Z,2.53
2023-03-06T08:01:23.426Z,3.00
2023-03-06T08:03:55.456Z,2.85
2023-03-06T08:06:27.703Z,2.50
2023-03-06T08:08:59.697Z,2.80
2023-03-06T08:11:32.017Z,3.10
2023-03-06T08:14:04.007Z,2.95
2023-03-06T08:16:35.649Z,2.85
2023-03-06T08:19:07.524Z,3.65
2023-03-06T08:21:39.132Z,3.05
2023-03-06T08:24:10.858Z,2.85
2023-03-06T08:26:43.210Z,3.25
2023-03-06T08:29:15.454Z,2.92
2023-03-06T08:31:48.625Z,2.60
2023-03-06T08:34:24.584Z,3.08
2023-03-06T08:36:56.184Z,3.85
2023-03-06T08:39:27.675Z,3.58
2023-03-06T08:41:59.351Z,3.78
2023-03-06T08:44:35.018Z,3.38
2023-03-06T08:47:09.357Z,3.22
2023-03-06T08:49:40.890Z,2.78
2023-03-06T08:52:12.476Z,3.10
2023-03-06T08:54:44.058Z,2.85
2023-03-06T08:57:15.785Z,2.88
2023-03-06T08:59:47.283Z,2.95
2023-03-06T09:02:18.861Z,2.72
2023-03-06T09:04:50.482Z,2.55
2023-03-06T09:07:22.223Z,4.13
2023-03-06T09:09:58.037Z,3.45
2023-03-06T09:12:32.613Z,3.53
2023-03-06T09:15:10.628Z,3.83
2023-03-06T09:17:42.372Z,3.13
2023-03-06T09:20:15.111Z,3.97
2023-03-06T09:22:47.090Z,2.90
2023-03-06T09:25:20.487Z,2.70
2023-03-06T09:28:08.602Z,4.43
2023-03-06T09:30:42.297Z,3.85
2023-03-06T09:33:14.768Z,3.38
2023-03-06T09:35:52.429Z,2.75
2023-03-06T09:38:27.826Z,3.50
2023-03-06T09:43:43.147Z,3.83
2023-03-06T09:46:36.685Z,2.80
2023-03-06T09:49:18.332Z,3.72
2023-03-06T09:52:40.987Z,4.60
2023-03-06T09:55:19.501Z,2.40
2023-03-06T09:58:01.631Z,4.35
2023-03-06T10:01:03.652Z,3.20
2023-03-06T10:04:05.746Z,3.95
2023-03-06T10:06:50.807Z,3.30
2023-03-06T10:09:48.310Z,4.20
2023-03-06T10:12:37.133Z,3.80
2023-03-06T10:15:28.604Z,3.05
2023-03-06T10:18:03.196Z,2.83
2023-03-06T10:21:00.939Z,2.90
2023-03-06T10:23:52.562Z,3.75
2023-03-06T10:26:32.978Z,3.13
2023-03-06T10:29:22.232Z,3.97
2023-03-06T10:32:11.606Z,3.58
2023-03-06T10:34:43.423Z,2.80
2023-03-06T10:37:22.264Z,3.40
2023-03-06T10:40:08.419Z,2.55
2023-03-06T10:42:40.123Z,2.90
2023-03-06T10:45:17.067Z,3.50
2023-03-06T10:47:48.639Z,2.90
2023-03-06T10:50:28.240Z,3.20
2023-03-06T10:53:07.185Z,3.22
2023-03-06T10:55:39.166Z,2.65
2023-03-06T10:58:30.892Z,2.90
2023-03-06T11:01:07.778Z,4.57
2023-03-06T11:03:39.463Z,2.90
2023-03-06T11:06:32.598Z,2.80
2023-03-06T11:09:25.677Z,3.42
2023-03-06T11:12:29.066Z,3.55
2023-03-06T11:15:06.726Z,2.47
2023-03-06T11:18:08.618Z,2.75
2023-03-06T11:20:51.370Z,1.90
2023-03-06T11:23:47.368Z,2.65
2023-03-06T11:26:34.493Z,3.03
2023-03-06T11:29:14.588Z,2.08
2023-03-06T11:31:55.822Z,2.85
2023-03-06T11:34:50.258Z,3.33
2023-03-06T11:37:49.471Z,3.33
2023-03-06T11:40:28.672Z,1.90
2023-03-06T11:43:23.383Z,3.63
2023-03-06T11:46:24.674Z,3.25
2023-03-06T11:49:24.409Z,1.70
2023-03-06T11:52:03.385Z,2.92
2023-03-06T11:54:35.793Z,2.67
2023-03-06T11:57:18.143Z,2.85
2023-03-06T12:00:04.428Z,2.58
2023-03-06T12:03:09.586Z,3.13
2023-03-06T12:06:09.719Z,1.98
2023-03-06T12:09:09.128Z,1.13
2023-03-06T12:11:57.137Z,1.65
2023-03-06T12:14:42.837Z,1.63
2023-03-06T12:17:50.771Z,1.48
2023-03-06T12:20:33.031Z,1.77
2023-03-06T12:23:36.705Z,1.40
2023-03-06T12:26:55.750Z,0.80
2023-03-06T12:29:56.213Z,1.05
2023-03-06T12:32:56.506Z,1.45
2023-03-06T12:36:17.435Z,2.83
2023-03-06T12:39:08.393Z,1.42
2023-03-06T12:42:04.927Z,1.42
2023-03-06T12:44:43.282Z,1.00
2023-03-06T12:47:20.724Z,1.73
2023-03-06T12:50:13.827Z,0.95
2023-03-06T12:52:46.937Z,1.23
2023-03-06T12:55:23.186Z,2.47
2023-03-06T12:57:55.885Z,1.25
2023-03-06T13:00:34.356Z,1.75
2023-03-06T13:04:02.524Z,1.58
2023-03-06T13:07:22.806Z,1.17
2023-03-06T13:10:10.858Z,1.10
2023-03-06T13:13:01.742Z,1.38
2023-03-06T13:16:04.281Z,1.25
2023-03-06T13:18:46.585Z,2.13
2023-03-06T13:21:55.300Z,1.23
2023-03-06T13:24:33.932Z,1.13
2023-03-06T13:27:12.298Z,0.85
2023-03-06T13:29:53.065Z,1.23
2023-03-06T13:32:32.789Z,1.27
2023-03-06T13:35:30.592Z,1.05
2023-03-06T13:38:02.176Z,1.48
2023-03-06T13:40:35.389Z,2.05
2023-03-06T13:43:06.955Z,1.25
2023-03-06T13:45:46.946Z,1.08
2023-03-06T13:48:47.655Z,1.45
2023-03-06T13:51:27.067Z,0.77
2023-03-06T13:54:42.492Z,1.45
2023-03-06T13:57:44.718Z,1.05
2023-03-06T14:01:12.389Z,1.00
2023-03-06T14:04:01.830Z,1.13
2023-03-06T14:06:37.282Z,0.80
2023-03-06T14:09:41.404Z,1.10
2023-03-06T14:12:26.767Z,0.80
2023-03-06T14:15:05.602Z,0.98
2023-03-06T14:17:39.211Z,1.35
2023-03-06T14:20:20.198Z,1.50
2023-03-06T14:23:33.482Z,0.93
2023-03-06T14:26:23.402Z,1.08
2023-03-06T14:29:00.756Z,1.27
2023-03-06T14:31:43.139Z,2.35
2023-03-06T14:34:27.619Z,0.52
2023-03-06T14:37:03.374Z,1.27
2023-03-06T14:39:42.706Z,1.13
2023-03-06T14:42:26.452Z,1.00
2023-03-06T14:45:05.536Z,0.98
2023-03-06T14:47:37.480Z,0.68
2023-03-06T14:50:25.657Z,1.02
2023-03-06T14:53:04.251Z,1.25
2023-03-06T14:55:36.342Z,0.80
2023-03-06T14:58:16.134Z,0.77
2023-03-06T15:00:57.016Z,1.08
2023-03-06T15:03:45.220Z,0.90
2023-03-06T15:06:24.388Z,1.27
2023-03-06T15:09:31.421Z,1.58
2023-03-06T15:12:33.473Z,0.85
2023-03-06T15:15:15.956Z,2.40
2023-03-06T15:17:48.493Z,1.52
2023-03-06T15:20:53.144Z,1.02
2023-03-06T15:23:36.647Z,0.75
2023-03-06T15:26:29.157Z,2.15
2023-03-06T15:29:16.760Z,1.25
2023-03-06T15:31:48.654Z,0.82
2023-03-06T15:34:23.796Z,0.73
2023-03-06T15:36:58.688Z,0.60
2023-03-06T15:39:40.408Z,1.25
2023-03-06T15:42:26.663Z,1.00
2023-03-06T15:45:03.426Z,1.17
2023-03-06T15:47:35.184Z,0.47
2023-03-06T15:50:22.158Z,1.30
2023-03-06T15:52:53.994Z,0.80
2023-03-06T15:55:26.281Z,0.98
2023-03-06T15:58:00.940Z,1.10
2023-03-06T16:00:40.082Z,0.85
2023-03-06T16:03:12.465Z,1.63
2023-03-06T16:05:44.250Z,1.75
2023-03-06T16:08:16.246Z,1.85
2023-03-06T16:10:48.289Z,1.10
2023-03-06T16:13:28.633Z,1.35
2023-03-06T16:16:00.210Z,1.25
2023-03-06T16:18:31.869Z,0.85
2023-03-06T16:21:03.827Z,1.13
2023-03-06T16:23:38.842Z,0.95
2023-03-06T16:26:29.293Z,1.42
2023-03-06T16:29:01.412Z,0.60
2023-03-06T16:31:33.244Z,1.10
2023-03-06T16:34:04.791Z,0.80
2023-03-06T16:36:36.779Z,1.00
2023-03-06T16:39:21.282Z,0.77
2023-03-06T16:41:53.020Z,1.33
2023-03-06T16:44:24.621Z,1.33
2023-03-06T16:46:56.199Z,0.88
2023-03-06T16:49:27.894Z,0.82
2023-03-06T16:52:00.402Z,0.77
2023-03-06T16:54:31.995Z,1.45
2023-03-06T16:57:03.646Z,1.58
2023-03-06T16:59:35.415Z,0.93
2023-03-06T17:02:07.044Z,1.35
2023-03-06T17:04:39.387Z,1.05
2023-03-06T17:07:10.954Z,0.30
2023-03-06T17:09:43.322Z,0.88
2023-03-06T17:12:15.004Z,1.30
2023-03-06T17:14:46.788Z,0.43
2023-03-06T17:17:18.561Z,0.55
2023-03-06T17:19:52.371Z,1.23
2023-03-06T17:22:26.632Z,0.90
2023-03-06T17:24:58.228Z,1.23
2023-03-06T17:27:30.244Z,0.70
2023-03-06T17:30:02.675Z,0.90
2023-03-06T17:32:34.394Z,1.17
2023-03-06T17:35:08.497Z,1.38
2023-03-06T17:37:40.189Z,1.00
2023-03-06T17:40:12.406Z,1.08
2023-03-06T17:42:44.042Z,0.88
2023-03-06T17:45:15.623Z,0.82
2023-03-06T17:47:49.042Z,0.90
2023-03-06T17:50:21.047Z,0.73
2023-03-06T17:52:52.633Z,0.68
2023-03-06T17:55:24.266Z,0.85
2023-03-06T17:57:55.823Z,0.90
2023-03-06T18:00:29.660Z,1.63
2023-03-06T18:03:01.275Z,0.70
2023-03-06T18:05:32.971Z,0.88
2023-03-06T18:08:05.718Z,0.75
2023-03-06T18:10:41.888Z,1.10
2023-03-06T18:13:14.188Z,0.90
2023-03-06T18:15:45.992Z,0.88
2023-03-06T18:18:17.570Z,0.55
2023-03-06T18:20:49.636Z,1.55
2023-03-06T18:23:21.756Z,1.52
2023-03-06T18:25:53.363Z,0.93
2023-03-06T18:28:27.310Z,0.90
2023-03-06T18:30:58.905Z,1.48
2023-03-06T18:33:30.403Z,1.30
2023-03-06T18:36:03.673Z,1.10
2023-03-06T18:38:35.426Z,0.93
2023-03-06T18:41:10.607Z,1.40
2023-03-06T18:43:42.325Z,1.73
2023-03-06T18:46:14.012Z,1.33
2023-03-06T18:48:45.739Z,1.52
2023-03-06T18:51:18.026Z,1.33
2023-03-06T18:53:49.797Z,1.13
2023-03-06T18:56:22.012Z,1.25
2023-03-06T18:58:54.708Z,0.40
2023-03-06T19:01:27.226Z,1.08
2023-03-06T19:04:01.707Z,1.20
2023-03-06T19:06:33.341Z,1.67
2023-03-06T19:09:05.655Z,1.33
2023-03-06T19:11:37.478Z,1.05
2023-03-06T19:14:09.220Z,0.93
2023-03-06T19:16:41.647Z,1.25
2023-03-06T19:19:13.304Z,1.58
2023-03-06T19:21:45.137Z,0.63
2023-03-06T19:24:16.677Z,1.30
2023-03-06T19:26:48.171Z,1.42
2023-03-06T19:29:19.749Z,1.10
2023-03-06T19:31:52.199Z,2.00
2023-03-06T19:34:23.838Z,1.73
2023-03-06T19:36:55.444Z,0.63
2023-03-06T19:39:27.035Z,1.40
2023-03-06T19:41:58.577Z,1.15
2023-03-06T19:44:30.290Z,0.80
2023-03-06T19:47:01.854Z,1.63
2023-03-06T19:49:33.955Z,1.45
2023-03-06T19:52:07.448Z,1.05
2023-03-06T19:54:39.239Z,1.10
2023-03-06T19:57:10.824Z,1.40
2023-03-06T19:59:42.538Z,1.05
2023-03-06T20:02:16.052Z,1.73
2023-03-06T20:04:47.633Z,1.05
2023-03-06T20:07:19.357Z,1.52
2023-03-06T20:09:52.327Z,1.33
2023-03-06T20:12:23.829Z,2.00
2023-03-06T20:14:55.373Z,1.02
2023-03-06T20:17:29.564Z,0.88
2023-03-06T20:20:01.797Z,0.98
2023-03-06T20:22:33.548Z,0.85
2023-03-06T20:25:06.140Z,1.67
2023-03-06T20:27:37.821Z,1.33
2023-03-06T20:30:10.261Z,0.93
2023-03-06T20:32:41.841Z,1.48
2023-03-06T20:35:13.998Z,1.30
2023-03-06T20:37:48.712Z,1.08
2023-03-06T20:40:22.786Z,1.05
2023-03-06T20:42:54.380Z,0.90
2023-03-06T20:45:26.050Z,1.13
2023-03-06T20:47:57.705Z,0.75
2023-03-06T20:50:29.335Z,1.13
2023-03-06T20:53:01.620Z,1.52
2023-03-06T20:55:37.586Z,1.75
2023-03-06T20:58:09.160Z,1.00
2023-03-06T21:00:41.351Z,1.92
2023-03-06T21:03:12.948Z,2.08
2023-03-06T21:05:47.814Z,1.52
2023-03-06T21:08:19.433Z,1.60
2023-03-06T21:10:51.148Z,2.05
2023-03-06T21:13:22.725Z,1.23
2023-03-06T21:15:56.603Z,1.40
2023-03-06T21:18:28.162Z,1.00
2023-03-06T21:21:04.250Z,1.55
2023-03-06T21:23:42.892Z,1.23
2023-03-06T21:26:24.904Z,1.45
2023-03-06T21:28:59.021Z,0.85
2023-03-06T21:31:31.781Z,1.50
2023-03-06T21:34:05.168Z,1.40
2023-03-06T21:36:37.231Z,0.88
2023-03-06T21:39:09.285Z,1.13
2023-03-06T21:41:41.176Z,1.20
2023-03-06T21:44:18.231Z,1.25
2023-03-06T21:46:57.450Z,1.52
2023-03-06T21:49:30.153Z,0.95
2023-03-06T21:52:01.658Z,1.60
2023-03-06T21:54:33.261Z,1.10
2023-03-06T21:57:05.066Z,1.95
2023-03-06T21:59:37.710Z,1.00
2023-03-06T22:02:10.941Z,0.90
2023-03-06T22:04:42.896Z,1.58
2023-03-06T22:07:14.459Z,1.50
2023-03-06T22:09:46.594Z,0.65
2023-03-06T22:12:21.722Z,1.13
2023-03-06T22:14:53.896Z,1.48
2023-03-06T22:17:25.638Z,2.40
2023-03-06T22:19:57.799Z,1.40
2023-03-06T22:22:30.707Z,1.13
2023-03-06T22:25:02.799Z,1.10
2023-03-06T22:27:34.326Z,1.15
2023-03-06T22:30:08.468Z,1.33
2023-03-06T22:32:40.081Z,1.50
2023-03-06T22:35:11.694Z,1.13
2023-03-06T22:37:45.386Z,1.20
2023-03-06T22:40:17.106Z,1.15
2023-03-06T22:42:48.666Z,0.88
2023-03-06T22:45:20.244Z,1.55
2023-03-06T22:47:55.139Z,1.38
2023-03-06T22:50:28.797Z,1.50
2023-03-06T22:53:00.287Z,1.60
2023-03-06T22:55:35.110Z,1.08
2023-03-06T22:58:06.690Z,1.92
2023-03-06T23:00:39.327Z,1.70
2023-03-06T23:03:10.844Z,1.55
2023-03-06T23:05:43.042Z,1.58
2023-03-06T23:08:14.772Z,1.38
2023-03-06T23:10:46.276Z,1.50
2023-03-06T23:13:17.820Z,0.82
2023-03-06T23:15:49.429Z,1.30
2023-03-06T23:18:21.082Z,1.25
2023-03-06T23:20:52.714Z,1.20
2023-03-06T23:23:25.172Z,1.45
2023-03-06T23:26:00.431Z,1.77
2023-03-06T23:28:32.808Z,1.13
2023-03-06T23:31:31.226Z,1.50
2023-03-06T23:34:03.814Z,1.58
2023-03-06T23:36:38.431Z,1.52
2023-03-06T23:39:12.569Z,1.65
2023-03-06T23:41:44.160Z,1.67
2023-03-06T23:44:15.759Z,1.50
2023-03-06T23:46:47.330Z,1.45
2023-03-06T23:49:21.973Z,1.75
2023-03-06T23:51:56.686Z,1.52
2023-03-06T23:54:28.252Z,1.92
2023-03-06T23:56:59.994Z,1.25
2023-03-06T23:59:31.783Z,1.33
